createdAt,value
2019-02-16T00:00:19.668Z,70.90
2019-02-16T00:02:48.105Z,71.10
2019-02-16T00:05:16.546Z,70.80
2019-02-16T00:07:44.988Z,71.20
2019-02-16T00:10:13.469Z,71.70
2019-02-16T00:12:41.900Z,72.00
2019-02-16T00:15:10.430Z,72.10
2019-02-16T00:17:38.846Z,72.10
2019-02-16T00:20:08.825Z,72.20
2019-02-16T00:22:37.298Z,72.60
2019-02-16T00:25:09.230Z,72.90
2019-02-16T00:27:37.699Z,72.50
2019-02-16T00:30:07.577Z,72.20
2019-02-16T00:32:36.027Z,72.00
2019-02-16T00:35:05.430Z,72.70
2019-02-16T00:37:33.976Z,73.20
2019-02-16T00:40:02.865Z,72.80
2019-02-16T00:42:31.365Z,72.50
2019-02-16T00:44:59.791Z,72.50
2019-02-16T00:47:28.238Z,73.30
2019-02-16T00:49:56.658Z,73.20
2019-02-16T00:52:25.137Z,73.50
2019-02-16T00:54:53.650Z,74.70
2019-02-16T00:57:22.085Z,74.00
2019-02-16T00:59:50.515Z,73.90
2019-02-16T01:02:18.952Z,73.30
2019-02-16T01:04:47.404Z,73.10
2019-02-16T01:07:15.842Z,73.10
2019-02-16T01:09:44.327Z,73.20
2019-02-16T01:12:12.764Z,73.20
2019-02-16T01:14:41.206Z,72.90
2019-02-16T01:17:09.617Z,73.10
2019-02-16T01:19:38.054Z,73.00
2019-02-16T01:22:06.535Z,73.30
2019-02-16T01:24:35.029Z,73.40
2019-02-16T01:27:03.540Z,73.40
2019-02-16T01:29:31.980Z,73.30
2019-02-16T01:32:01.929Z,73.50
2019-02-16T01:34:30.383Z,73.60
2019-02-16T01:37:00.149Z,74.00
2019-02-16T01:39:30.253Z,74.80
2019-02-16T01:41:58.757Z,75.90
2019-02-16T01:44:27.278Z,75.10
2019-02-16T01:46:55.698Z,74.60
2019-02-16T01:49:24.150Z,74.70
2019-02-16T01:51:52.579Z,75.70
2019-02-16T01:54:21.016Z,76.00
2019-02-16T01:56:49.457Z,75.50
2019-02-16T01:59:17.916Z,75.10
2019-02-16T02:01:46.360Z,74.80
2019-02-16T02:04:14.797Z,74.80
2019-02-16T02:06:43.225Z,74.80
2019-02-16T02:09:12.256Z,74.70
2019-02-16T02:11:40.941Z,74.70
2019-02-16T02:14:09.376Z,74.80
2019-02-16T02:16:37.862Z,75.20
2019-02-16T02:19:06.376Z,75.60
2019-02-16T02:21:40.991Z,75.20
2019-02-16T02:24:04.923Z,75.50
2019-02-16T02:26:33.372Z,76.30
2019-02-16T02:29:01.800Z,76.40
2019-02-16T02:31:30.246Z,77.10
2019-02-16T02:33:58.680Z,77.80
2019-02-16T02:36:27.220Z,78.40
2019-02-16T02:38:55.653Z,78.50
2019-02-16T02:41:24.077Z,77.90
2019-02-16T02:43:52.522Z,77.30
2019-02-16T02:46:20.961Z,76.80
2019-02-16T02:48:49.382Z,77.50
2019-02-16T02:51:17.867Z,76.80
2019-02-16T02:53:46.294Z,77.00
2019-02-16T02:56:14.733Z,77.10
2019-02-16T02:58:43.150Z,77.30
2019-02-16T03:01:11.649Z,77.40
2019-02-16T03:03:40.065Z,77.30
2019-02-16T03:06:08.516Z,77.50
2019-02-16T03:08:36.943Z,77.50
2019-02-16T03:11:05.390Z,77.50
2019-02-16T03:13:33.847Z,78.10
2019-02-16T03:16:02.275Z,77.60
2019-02-16T03:18:30.706Z,77.00
2019-02-16T03:20:59.157Z,77.40
2019-02-16T03:23:27.809Z,77.00
2019-02-16T03:26:08.133Z,77.20
2019-02-16T03:28:45.240Z,76.50
2019-02-16T03:31:19.439Z,76.90
2019-02-16T03:33:50.943Z,76.90
2019-02-16T03:36:46.472Z,76.20
2019-02-16T03:39:15.946Z,76.50
2019-02-16T03:41:44.476Z,77.00
2019-02-16T03:44:12.892Z,77.40
2019-02-16T03:46:41.350Z,77.70
2019-02-16T03:49:09.750Z,77.20
2019-02-16T03:51:38.204Z,76.90
2019-02-16T03:54:06.657Z,76.80
2019-02-16T03:56:35.076Z,76.60
2019-02-16T03:59:03.552Z,76.50
2019-02-16T04:01:31.972Z,76.80
2019-02-16T04:04:00.413Z,76.80
2019-02-16T04:06:28.860Z,77.80
2019-02-16T04:08:57.380Z,77.60
2019-02-16T04:11:25.889Z,77.20
2019-02-16T04:13:54.336Z,77.40
2019-02-16T04:16:22.750Z,77.80
2019-02-16T04:18:51.216Z,77.90
2019-02-16T04:21:19.643Z,77.90
2019-02-16T04:23:48.109Z,77.40
2019-02-16T04:26:16.570Z,77.40
2019-02-16T04:28:45.014Z,77.00
2019-02-16T04:31:13.466Z,76.80
2019-02-16T04:33:41.905Z,76.70
2019-02-16T04:36:10.347Z,76.70
2019-02-16T04:38:38.782Z,76.70
2019-02-16T04:41:07.212Z,76.80
2019-02-16T04:43:35.623Z,76.90
2019-02-16T04:46:04.063Z,77.00
2019-02-16T04:48:32.484Z,78.00
2019-02-16T04:51:00.924Z,77.90
2019-02-16T04:53:29.338Z,78.20
2019-02-16T04:55:57.793Z,78.10
2019-02-16T04:58:26.202Z,77.40
2019-02-16T05:00:54.648Z,78.00
2019-02-16T05:03:23.085Z,78.40
2019-02-16T05:05:51.538Z,77.80
2019-02-16T05:08:19.954Z,77.70
2019-02-16T05:10:48.395Z,77.20
2019-02-16T05:13:16.808Z,77.00
2019-02-16T05:15:45.262Z,77.00
2019-02-16T05:18:13.674Z,77.40
2019-02-16T05:20:42.115Z,77.40
2019-02-16T05:23:10.521Z,77.40
2019-02-16T05:25:38.945Z,77.20
2019-02-16T05:28:07.397Z,77.30
2019-02-16T05:30:35.814Z,77.80
2019-02-16T05:33:04.237Z,77.80
2019-02-16T05:35:32.667Z,78.50
2019-02-16T05:38:01.100Z,77.90
2019-02-16T05:40:29.537Z,78.00
2019-02-16T05:42:57.972Z,78.10
2019-02-16T05:45:26.401Z,78.30
2019-02-16T05:47:54.833Z,78.20
2019-02-16T05:50:23.254Z,78.00
2019-02-16T05:52:54.389Z,78.40
2019-02-16T05:55:21.842Z,78.00
2019-02-16T05:57:50.274Z,78.50
2019-02-16T06:00:20.320Z,79.20
2019-02-16T06:02:48.766Z,78.80
2019-02-16T06:05:17.187Z,78.60
2019-02-16T06:07:45.626Z,78.30
2019-02-16T06:10:14.047Z,78.20
2019-02-16T06:12:42.472Z,78.20
2019-02-16T06:15:11.039Z,78.40
2019-02-16T06:17:39.476Z,78.80
2019-02-16T06:20:08.937Z,79.30
2019-02-16T06:22:37.368Z,78.60
2019-02-16T06:25:06.509Z,79.00
2019-02-16T06:27:34.959Z,78.70
2019-02-16T06:30:03.884Z,78.30
2019-02-16T06:32:32.374Z,79.40
2019-02-16T06:35:02.455Z,79.40
2019-02-16T06:37:32.456Z,79.30
2019-02-16T06:40:00.902Z,79.20
2019-02-16T06:42:29.352Z,79.20
2019-02-16T06:44:57.776Z,78.70
2019-02-16T06:47:27.664Z,78.80
2019-02-16T06:49:56.102Z,78.70
2019-02-16T06:52:24.545Z,79.20
2019-02-16T06:54:52.985Z,79.10
2019-02-16T06:57:25.929Z,79.80
2019-02-16T06:59:54.357Z,78.60
2019-02-16T07:02:23.761Z,78.60
2019-02-16T07:04:52.204Z,78.70
2019-02-16T07:07:20.683Z,79.10
2019-02-16T07:09:49.125Z,78.90
2019-02-16T07:12:17.634Z,79.70
2019-02-16T07:14:46.073Z,79.50
2019-02-16T07:17:27.901Z,79.50
2019-02-16T07:19:56.366Z,79.00
2019-02-16T07:22:24.794Z,79.20
2019-02-16T07:24:53.233Z,79.40
2019-02-16T07:27:21.637Z,79.50
2019-02-16T07:29:50.091Z,79.40
2019-02-16T07:32:18.500Z,78.80
2019-02-16T07:34:47.045Z,78.40
2019-02-16T07:37:15.462Z,78.50
2019-02-16T07:39:43.897Z,78.30
2019-02-16T07:42:12.330Z,78.60
2019-02-16T07:44:42.413Z,78.20
2019-02-16T07:47:21.329Z,78.20
2019-02-16T07:50:07.204Z,78.20
2019-02-16T07:52:37.300Z,77.90
2019-02-16T07:55:13.550Z,77.90
2019-02-16T07:57:43.616Z,78.00
2019-02-16T08:00:16.593Z,78.80
2019-02-16T08:02:55.461Z,78.00
2019-02-16T08:05:41.580Z,78.20
2019-02-16T08:08:23.745Z,78.20
2019-02-16T08:10:56.620Z,78.10
2019-02-16T08:13:38.809Z,78.10
2019-02-16T08:16:08.954Z,77.80
2019-02-16T08:18:54.996Z,77.90
2019-02-16T08:21:37.122Z,77.70
2019-02-16T08:24:13.226Z,77.30
2019-02-16T08:26:49.344Z,77.10
2019-02-16T08:29:19.482Z,76.80
2019-02-16T08:31:49.564Z,76.90
2019-02-16T08:34:28.777Z,76.80
2019-02-16T08:36:58.861Z,76.30
2019-02-16T08:39:41.036Z,75.50
2019-02-16T08:42:11.115Z,75.00
2019-02-16T08:44:44.143Z,74.40
2019-02-16T08:47:14.253Z,73.90
2019-02-16T08:49:56.861Z,73.50
2019-02-16T08:52:26.963Z,72.60
2019-02-16T08:54:57.070Z,72.40
2019-02-16T08:57:43.379Z,71.90
2019-02-16T09:00:16.426Z,71.70
2019-02-16T09:02:49.204Z,70.90
2019-02-16T09:05:35.156Z,70.20
2019-02-16T09:08:05.275Z,70.10
2019-02-16T09:10:50.256Z,70.10
2019-02-16T09:13:20.336Z,70.70
2019-02-16T09:15:50.461Z,69.40
2019-02-16T09:18:20.576Z,68.50
2019-02-16T09:21:14.846Z,68.30
2019-02-16T09:23:59.099Z,67.60
2019-02-16T09:26:36.257Z,67.20
2019-02-16T09:29:24.310Z,66.90
2019-02-16T09:31:57.425Z,66.80
2019-02-16T09:34:27.569Z,66.40
2019-02-16T09:37:00.742Z,66.20
2019-02-16T09:39:30.874Z,65.80
2019-02-16T09:42:01.000Z,65.20
2019-02-16T09:44:31.094Z,65.00
2019-02-16T09:47:01.166Z,64.80
2019-02-16T09:49:31.277Z,64.50
2019-02-16T09:52:07.273Z,64.70
2019-02-16T09:54:46.080Z,64.80
2019-02-16T09:57:19.127Z,63.90
2019-02-16T09:59:49.244Z,63.40
2019-02-16T10:02:19.294Z,63.40
2019-02-16T10:04:49.406Z,63.20
2019-02-16T10:07:19.470Z,62.30
2019-02-16T10:09:51.405Z,61.70
2019-02-16T10:12:37.557Z,61.40
2019-02-16T10:15:25.778Z,59.40
2019-02-16T10:18:13.441Z,59.30
2019-02-16T10:20:49.299Z,58.80
2019-02-16T10:23:22.049Z,58.10
2019-02-16T10:25:52.164Z,57.30
2019-02-16T10:28:31.341Z,57.50
2019-02-16T10:31:04.190Z,56.80
2019-02-16T10:33:34.304Z,56.40
2019-02-16T10:36:16.273Z,56.40
2019-02-16T10:38:46.330Z,55.70
2019-02-16T10:41:19.209Z,55.10
2019-02-16T10:43:51.773Z,54.90
2019-02-16T10:46:24.717Z,54.50
2019-02-16T10:49:03.656Z,54.70
2019-02-16T10:51:45.291Z,54.70
2019-02-16T10:54:15.385Z,53.90
2019-02-16T10:56:48.576Z,53.40
2019-02-16T10:59:21.220Z,52.70
2019-02-16T11:01:57.281Z,52.60
2019-02-16T11:04:27.372Z,52.00
2019-02-16T11:06:57.438Z,51.80
2019-02-16T11:09:27.596Z,51.20
2019-02-16T11:12:03.374Z,50.90
2019-02-16T11:14:42.196Z,50.70
2019-02-16T11:17:12.278Z,50.20
2019-02-16T11:19:42.349Z,50.30
2019-02-16T11:22:18.398Z,50.30
2019-02-16T11:24:57.216Z,50.00
2019-02-16T11:27:30.226Z,49.80
2019-02-16T11:30:12.415Z,49.50
2019-02-16T11:32:42.485Z,49.50
2019-02-16T11:35:28.641Z,48.90
2019-02-16T11:38:01.668Z,48.80
2019-02-16T11:40:34.798Z,48.70
2019-02-16T11:43:10.660Z,48.30
2019-02-16T11:45:49.586Z,47.90
2019-02-16T11:48:22.841Z,47.90
2019-02-16T11:50:52.975Z,47.70
2019-02-16T11:53:39.281Z,47.40
2019-02-16T11:56:24.248Z,46.80
2019-02-16T11:59:10.180Z,46.50
2019-02-16T12:01:40.782Z,45.70
2019-02-16T12:04:11.027Z,45.30
2019-02-16T12:06:42.106Z,44.80
2019-02-16T12:09:12.202Z,44.50
2019-02-16T12:11:42.270Z,44.20
2019-02-16T12:14:28.535Z,43.80
2019-02-16T12:17:01.676Z,43.90
2019-02-16T12:19:34.722Z,43.60
2019-02-16T12:22:16.841Z,43.20
2019-02-16T12:25:05.734Z,43.30
2019-02-16T12:27:50.894Z,44.20
2019-02-16T12:30:26.774Z,42.60
2019-02-16T12:32:56.844Z,42.60
2019-02-16T12:35:38.842Z,42.60
2019-02-16T12:38:08.981Z,42.30
2019-02-16T12:40:47.941Z,41.80
2019-02-16T12:43:21.065Z,41.10
2019-02-16T12:45:56.971Z,40.70
2019-02-16T12:48:27.085Z,40.90
2019-02-16T12:51:12.319Z,40.10
2019-02-16T12:53:54.329Z,40.20
2019-02-16T12:56:27.149Z,40.00
2019-02-16T12:59:02.971Z,40.00
2019-02-16T13:01:41.774Z,39.80
2019-02-16T13:04:17.797Z,39.00
2019-02-16T13:06:50.332Z,38.30
2019-02-16T13:09:23.234Z,37.00
2019-02-16T13:11:53.310Z,36.80
2019-02-16T13:14:23.440Z,36.10
2019-02-16T13:16:53.507Z,36.00
2019-02-16T13:19:23.656Z,35.60
2019-02-16T13:21:53.743Z,34.80
2019-02-16T13:24:32.966Z,34.10
2019-02-16T13:27:03.035Z,33.80
2019-02-16T13:29:33.103Z,33.60
2019-02-16T13:32:03.171Z,32.40
2019-02-16T13:34:36.223Z,33.60
2019-02-16T13:37:22.437Z,33.90
2019-02-16T13:39:58.251Z,34.50
2019-02-16T13:42:28.343Z,33.70
2019-02-16T13:45:01.061Z,33.80
2019-02-16T13:47:31.118Z,33.00
2019-02-16T13:50:04.162Z,32.10
2019-02-16T13:52:34.213Z,31.70
2019-02-16T13:55:11.209Z,31.40
2019-02-16T13:57:57.679Z,31.40
2019-02-16T14:00:30.728Z,31.50
2019-02-16T14:03:12.774Z,32.00
2019-02-16T14:05:42.845Z,32.40
2019-02-16T14:08:12.896Z,32.20
2019-02-16T14:10:42.985Z,32.20
2019-02-16T14:13:13.024Z,31.60
2019-02-16T14:16:00.990Z,30.90
2019-02-16T14:18:29.434Z,31.10
2019-02-16T14:20:58.028Z,31.10
2019-02-16T14:23:28.447Z,30.70
2019-02-16T14:25:56.624Z,30.10
2019-02-16T14:28:25.077Z,29.70
2019-02-16T14:30:53.509Z,30.00
2019-02-16T14:33:21.931Z,29.70
2019-02-16T14:35:50.420Z,29.70
2019-02-16T14:38:23.260Z,29.80
2019-02-16T14:40:51.713Z,29.70
2019-02-16T14:43:20.281Z,30.20
2019-02-16T14:45:48.754Z,30.30
2019-02-16T14:48:17.170Z,30.00
2019-02-16T14:50:45.605Z,30.50
2019-02-16T14:53:14.021Z,30.00
2019-02-16T14:55:51.572Z,30.20
2019-02-16T14:58:12.622Z,30.80
2019-02-16T15:00:41.050Z,31.20
2019-02-16T15:03:09.526Z,31.60
2019-02-16T15:05:37.985Z,31.60
2019-02-16T15:08:06.414Z,32.10
2019-02-16T15:10:34.843Z,32.10
2019-02-16T15:13:03.332Z,32.60
2019-02-16T15:15:31.825Z,33.20
2019-02-16T15:18:00.285Z,33.10
2019-02-16T15:20:28.701Z,33.60
2019-02-16T15:22:57.149Z,33.60
2019-02-16T15:25:25.660Z,33.70
2019-02-16T15:27:54.099Z,34.20
2019-02-16T15:30:22.575Z,34.70
2019-02-16T15:32:51.031Z,34.40
2019-02-16T15:35:20.578Z,35.30
2019-02-16T15:37:49.158Z,35.70
2019-02-16T15:40:17.676Z,36.60
2019-02-16T15:42:46.140Z,36.90
2019-02-16T15:45:14.927Z,37.90
2019-02-16T15:47:44.224Z,38.10
2019-02-16T15:50:14.392Z,37.70
2019-02-16T15:52:44.462Z,37.90
2019-02-16T15:55:13.162Z,37.70
2019-02-16T15:57:41.689Z,37.70
2019-02-16T16:00:18.172Z,37.70
2019-02-16T16:02:46.694Z,37.60
2019-02-16T16:05:15.221Z,37.60
2019-02-16T16:07:45.349Z,37.50
2019-02-16T16:10:21.334Z,37.60
2019-02-16T16:13:06.305Z,37.70
2019-02-16T16:15:44.659Z,37.80
2019-02-16T16:18:17.108Z,38.00
2019-02-16T16:20:47.230Z,38.10
2019-02-16T16:23:29.331Z,38.20
2019-02-16T16:26:08.280Z,38.50
2019-02-16T16:28:38.381Z,38.70
2019-02-16T16:31:17.118Z,39.20
2019-02-16T16:33:50.096Z,39.70
2019-02-16T16:36:28.970Z,39.90
2019-02-16T16:38:59.072Z,40.20
2019-02-16T16:41:29.186Z,40.70
2019-02-16T16:44:07.894Z,40.80
2019-02-16T16:46:38.086Z,41.00
2019-02-16T16:49:14.189Z,41.20
2019-02-16T16:52:00.364Z,41.50
2019-02-16T16:54:34.707Z,41.80
2019-02-16T16:57:07.568Z,42.40
2019-02-16T16:59:49.504Z,42.60
2019-02-16T17:02:35.561Z,42.70
2019-02-16T17:05:06.569Z,43.30
2019-02-16T17:07:39.799Z,43.50
2019-02-16T17:10:22.099Z,43.80
2019-02-16T17:12:52.164Z,44.20
2019-02-16T17:15:38.325Z,44.30
2019-02-16T17:18:10.865Z,44.40
2019-02-16T17:20:46.469Z,45.00
2019-02-16T17:23:16.623Z,45.00
2019-02-16T17:25:52.756Z,45.30
2019-02-16T17:28:37.733Z,45.70
2019-02-16T17:31:19.967Z,46.00
2019-02-16T17:33:55.544Z,46.20
2019-02-16T17:36:34.729Z,46.40
2019-02-16T17:39:04.858Z,46.60
2019-02-16T17:41:51.415Z,46.90
2019-02-16T17:44:27.112Z,47.00
2019-02-16T17:46:57.395Z,46.90
2019-02-16T17:49:33.214Z,47.40
2019-02-16T17:52:18.723Z,47.60
2019-02-16T17:54:51.814Z,47.80
2019-02-16T17:57:25.006Z,47.40
2019-02-16T18:00:03.742Z,47.10
2019-02-16T18:02:52.064Z,47.30
2019-02-16T18:05:22.129Z,47.80
2019-02-16T18:07:58.165Z,47.80
2019-02-16T18:10:31.334Z,47.60
2019-02-16T18:13:01.554Z,48.00
2019-02-16T18:15:31.618Z,47.80
2019-02-16T18:18:13.290Z,48.10
2019-02-16T18:20:58.227Z,48.80
2019-02-16T18:23:33.831Z,49.20
2019-02-16T18:26:03.948Z,49.20
2019-02-16T18:28:36.742Z,49.10
2019-02-16T18:31:12.682Z,49.40
2019-02-16T18:34:00.628Z,50.10
2019-02-16T18:36:42.311Z,50.40
2019-02-16T18:39:12.672Z,50.70
2019-02-16T18:41:48.839Z,51.10
2019-02-16T18:44:21.691Z,51.50
2019-02-16T18:47:07.586Z,51.50
2019-02-16T18:49:46.549Z,51.80
2019-02-16T18:52:22.382Z,51.70
2019-02-16T18:54:58.337Z,51.80
2019-02-16T18:57:44.276Z,52.30
2019-02-16T19:00:17.252Z,52.40
2019-02-16T19:02:47.328Z,52.30
2019-02-16T19:05:20.376Z,52.60
2019-02-16T19:07:50.584Z,52.60
2019-02-16T19:10:20.776Z,52.80
2019-02-16T19:12:53.381Z,53.00
2019-02-16T19:15:23.528Z,53.10
2019-02-16T19:17:56.402Z,53.20
2019-02-16T19:20:26.505Z,53.30
2019-02-16T19:22:56.569Z,53.40
2019-02-16T19:25:35.187Z,53.70
2019-02-16T19:28:20.075Z,54.00
2019-02-16T19:30:59.063Z,54.20
2019-02-16T19:33:34.921Z,54.10
2019-02-16T19:36:08.035Z,53.60
2019-02-16T19:38:38.137Z,53.60
2019-02-16T19:41:19.764Z,54.10
2019-02-16T19:43:49.949Z,55.20
2019-02-16T19:46:36.040Z,55.30
2019-02-16T19:49:08.898Z,55.60
2019-02-16T19:51:55.438Z,55.90
2019-02-16T19:54:25.515Z,56.10
2019-02-16T19:56:55.623Z,56.40
2019-02-16T19:59:25.797Z,56.40
2019-02-16T20:02:01.631Z,56.60
2019-02-16T20:04:40.397Z,56.90
2019-02-16T20:07:13.234Z,57.50
2019-02-16T20:09:49.043Z,57.40
2019-02-16T20:12:19.121Z,57.50
2019-02-16T20:14:49.239Z,57.40
2019-02-16T20:17:28.368Z,57.50
2019-02-16T20:20:04.523Z,57.30
2019-02-16T20:22:49.485Z,58.90
2019-02-16T20:25:22.154Z,58.20
2019-02-16T20:27:52.260Z,57.90
2019-02-16T20:30:40.236Z,58.00
2019-02-16T20:33:10.348Z,58.10
2019-02-16T20:35:55.205Z,58.30
2019-02-16T20:38:25.288Z,58.30
2019-02-16T20:40:58.445Z,58.60
2019-02-16T20:43:43.658Z,58.80
2019-02-16T20:46:19.509Z,59.20
2019-02-16T20:48:58.701Z,58.80
2019-02-16T20:51:45.103Z,58.90
2019-02-16T20:54:21.222Z,59.30
2019-02-16T20:57:09.193Z,59.30
2019-02-16T20:59:48.337Z,59.70
2019-02-16T21:02:21.270Z,60.00
2019-02-16T21:04:57.452Z,59.60
2019-02-16T21:07:39.354Z,59.60
2019-02-16T21:10:26.412Z,59.80
2019-02-16T21:12:56.531Z,60.00
2019-02-16T21:15:35.706Z,60.30
2019-02-16T21:18:13.797Z,60.30
2019-02-16T21:20:49.529Z,60.70
2019-02-16T21:23:37.903Z,60.20
2019-02-16T21:26:23.109Z,60.40
2019-02-16T21:28:53.188Z,60.20
2019-02-16T21:31:23.449Z,60.20
2019-02-16T21:33:56.521Z,60.30
2019-02-16T21:36:30.182Z,60.60
2019-02-16T21:39:03.687Z,60.70
2019-02-16T21:41:49.933Z,61.20
2019-02-16T21:44:22.459Z,61.40
2019-02-16T21:47:08.780Z,61.50
2019-02-16T21:49:55.495Z,61.70
2019-02-16T21:52:31.360Z,62.40
2019-02-16T21:55:01.658Z,62.40
2019-02-16T21:57:43.619Z,63.00
2019-02-16T22:00:30.132Z,62.90
2019-02-16T22:03:02.908Z,63.30
2019-02-16T22:05:33.012Z,63.40
2019-02-16T22:08:03.102Z,63.60
2019-02-16T22:10:44.989Z,64.30
2019-02-16T22:13:13.416Z,65.10
2019-02-16T22:15:41.867Z,63.50
2019-02-16T22:18:10.375Z,63.60
2019-02-16T22:20:38.839Z,64.00
2019-02-16T22:23:07.256Z,63.70
2019-02-16T22:25:35.785Z,63.60
2019-02-16T22:28:04.285Z,64.00
2019-02-16T22:30:32.731Z,64.60
2019-02-16T22:33:01.181Z,64.50
2019-02-16T22:35:29.686Z,64.60
2019-02-16T22:37:58.106Z,64.70
2019-02-16T22:40:26.580Z,64.60
2019-02-16T22:42:55.007Z,64.50
2019-02-16T22:45:23.449Z,65.00
2019-02-16T22:47:51.882Z,64.60
2019-02-16T22:50:20.403Z,64.80
2019-02-16T22:52:48.857Z,64.70
2019-02-16T22:55:17.439Z,64.70
2019-02-16T22:57:45.869Z,64.60
2019-02-16T23:00:19.034Z,64.50
2019-02-16T23:02:47.719Z,64.70
2019-02-16T23:05:16.285Z,65.10
2019-02-16T23:07:44.846Z,65.40
2019-02-16T23:10:13.544Z,66.50
2019-02-16T23:12:42.192Z,66.00
2019-02-16T23:15:11.793Z,66.20
2019-02-16T23:17:40.358Z,66.00
2019-02-16T23:20:10.994Z,66.20
2019-02-16T23:22:39.505Z,66.10
2019-02-16T23:25:08.928Z,65.80
2019-02-16T23:27:37.474Z,66.00
2019-02-16T23:30:09.283Z,66.20
2019-02-16T23:32:37.898Z,66.70
2019-02-16T23:35:08.014Z,66.80
2019-02-16T23:37:36.589Z,67.00
2019-02-16T23:40:07.183Z,67.00
2019-02-16T23:42:35.836Z,67.00
2019-02-16T23:45:06.213Z,66.90
2019-02-16T23:47:34.759Z,67.20
2019-02-16T23:50:03.448Z,67.40
2019-02-16T23:52:34.505Z,67.30
2019-02-16T23:55:03.352Z,67.60
2019-02-16T23:57:31.835Z,67.40
